sensor_id;sensor_type;location;lat;lon;timestamp;temperature;humidity
11087;DHT22;5597;47.588;9.642;2024-03-22T00:01:55;6.60;99.90
11087;DHT22;5597;47.588;9.642;2024-03-22T00:04:21;6.50;99.90
11087;DHT22;5597;47.588;9.642;2024-03-22T00:06:47;6.50;99.90
11087;DHT22;5597;47.588;9.642;2024-03-22T00:09:14;6.50;99.90
11087;DHT22;5597;47.588;9.642;2024-03-22T00:11:40;6.50;99.90
11087;DHT22;5597;47.588;9.642;2024-03-22T00:14:06;6.50;99.90
11087;DHT22;5597;47.588;9.642;2024-03-22T00:16:33;6.50;99.90
11087;DHT22;5597;47.588;9.642;2024-03-22T00:18:58;6.50;99.90
11087;DHT22;5597;47.588;9.642;2024-03-22T00:21:24;6.50;99.90
11087;DHT22;5597;47.588;9.642;2024-03-22T00:23:50;6.50;99.90
11087;DHT22;5597;47.588;9.642;2024-03-22T00:26:15;6.50;99.90
11087;DHT22;5597;47.588;9.642;2024-03-22T00:28:41;6.50;99.90
11087;DHT22;5597;47.588;9.642;2024-03-22T00:31:07;6.50;99.90
11087;DHT22;5597;47.588;9.642;2024-03-22T00:33:33;6.50;99.90
11087;DHT22;5597;47.588;9.642;2024-03-22T00:35:59;6.50;99.90
11087;DHT22;5597;47.588;9.642;2024-03-22T00:38:24;6.50;99.90
11087;DHT22;5597;47.588;9.642;2024-03-22T00:40:50;6.50;99.90
11087;DHT22;5597;47.588;9.642;2024-03-22T00:43:15;6.50;99.90
11087;DHT22;5597;47.588;9.642;2024-03-22T00:45:41;6.50;99.90
11087;DHT22;5597;47.588;9.642;2024-03-22T00:48:07;6.50;99.90
11087;DHT22;5597;47.588;9.642;2024-03-22T00:50:33;6.50;99.90
11087;DHT22;5597;47.588;9.642;2024-03-22T00:52:58;6.50;99.90
11087;DHT22;5597;47.588;9.642;2024-03-22T00:55:24;6.40;99.90
11087;DHT22;5597;47.588;9.642;2024-03-22T00:57:50;6.50;99.90
11087;DHT22;5597;47.588;9.642;2024-03-22T01:00:16;6.40;99.90
11087;DHT22;5597;47.588;9.642;2024-03-22T01:02:42;6.40;99.90
11087;DHT22;5597;47.588;9.642;2024-03-22T01:05:08;6.40;99.90
11087;DHT22;5597;47.588;9.642;2024-03-22T01:07:35;6.30;99.90
11087;DHT22;5597;47.588;9.642;2024-03-22T01:10:00;6.30;99.90
11087;DHT22;5597;47.588;9.642;2024-03-22T01:12:26;6.30;99.90
11087;DHT22;5597;47.588;9.642;2024-03-22T01:14:51;6.20;99.90
11087;DHT22;5597;47.588;9.642;2024-03-22T01:17:17;6.20;99.90
11087;DHT22;5597;47.588;9.642;2024-03-22T01:19:42;6.10;99.90
11087;DHT22;5597;47.588;9.642;2024-03-22T01:22:08;6.10;99.90
11087;DHT22;5597;47.588;9.642;2024-03-22T01:24:34;6.10;99.90
11087;DHT22;5597;47.588;9.642;2024-03-22T01:26:59;6.10;99.90
11087;DHT22;5597;47.588;9.642;2024-03-22T01:29:25;6.10;99.90
11087;DHT22;5597;47.588;9.642;2024-03-22T01:31:50;6.00;99.90
11087;DHT22;5597;47.588;9.642;2024-03-22T01:34:16;5.90;99.90
11087;DHT22;5597;47.588;9.642;2024-03-22T01:36:41;5.80;99.90
11087;DHT22;5597;47.588;9.642;2024-03-22T01:39:07;5.80;99.90
11087;DHT22;5597;47.588;9.642;2024-03-22T01:41:33;5.80;99.90
11087;DHT22;5597;47.588;9.642;2024-03-22T01:43:58;5.70;99.90
11087;DHT22;5597;47.588;9.642;2024-03-22T01:46:24;5.70;99.90
11087;DHT22;5597;47.588;9.642;2024-03-22T01:48:50;5.70;99.90
11087;DHT22;5597;47.588;9.642;2024-03-22T01:51:17;5.70;99.90
11087;DHT22;5597;47.588;9.642;2024-03-22T01:53:43;5.70;99.90
11087;DHT22;5597;47.588;9.642;2024-03-22T01:56:09;5.70;99.90
11087;DHT22;5597;47.588;9.642;2024-03-22T01:58:35;5.70;99.90
11087;DHT22;5597;47.588;9.642;2024-03-22T02:01:01;5.70;99.90
11087;DHT22;5597;47.588;9.642;2024-03-22T02:03:27;5.60;99.90
11087;DHT22;5597;47.588;9.642;2024-03-22T02:05:53;5.60;99.90
11087;DHT22;5597;47.588;9.642;2024-03-22T02:08:19;5.50;99.90
11087;DHT22;5597;47.588;9.642;2024-03-22T02:10:45;5.50;99.90
11087;DHT22;5597;47.588;9.642;2024-03-22T02:13:10;5.50;99.90
11087;DHT22;5597;47.588;9.642;2024-03-22T02:15:36;5.50;99.90
11087;DHT22;5597;47.588;9.642;2024-03-22T02:18:02;5.50;99.90
11087;DHT22;5597;47.588;9.642;2024-03-22T02:20:27;5.50;99.90
11087;DHT22;5597;47.588;9.642;2024-03-22T02:22:53;5.50;99.90
11087;DHT22;5597;47.588;9.642;2024-03-22T02:25:18;5.40;99.90
11087;DHT22;5597;47.588;9.642;2024-03-22T02:27:44;5.40;99.90
11087;DHT22;5597;47.588;9.642;2024-03-22T02:30:10;5.40;99.90
11087;DHT22;5597;47.588;9.642;2024-03-22T02:32:35;5.30;99.90
11087;DHT22;5597;47.588;9.642;2024-03-22T02:35:02;5.30;99.90
11087;DHT22;5597;47.588;9.642;2024-03-22T02:37:28;5.20;99.90
11087;DHT22;5597;47.588;9.642;2024-03-22T02:39:53;5.10;99.90
11087;DHT22;5597;47.588;9.642;2024-03-22T02:42:19;5.10;99.90
11087;DHT22;5597;47.588;9.642;2024-03-22T02:44:44;5.10;99.90
11087;DHT22;5597;47.588;9.642;2024-03-22T02:47:10;5.10;99.90
11087;DHT22;5597;47.588;9.642;2024-03-22T02:49:37;5.00;99.90
11087;DHT22;5597;47.588;9.642;2024-03-22T02:52:02;5.00;99.90
11087;DHT22;5597;47.588;9.642;2024-03-22T02:54:28;5.00;99.90
11087;DHT22;5597;47.588;9.642;2024-03-22T02:56:54;5.00;99.90
11087;DHT22;5597;47.588;9.642;2024-03-22T02:59:19;4.90;99.90
11087;DHT22;5597;47.588;9.642;2024-03-22T03:01:45;4.90;99.90
11087;DHT22;5597;47.588;9.642;2024-03-22T03:04:10;4.90;99.90
11087;DHT22;5597;47.588;9.642;2024-03-22T03:06:36;4.80;99.90
11087;DHT22;5597;47.588;9.642;2024-03-22T03:09:01;4.80;99.90
11087;DHT22;5597;47.588;9.642;2024-03-22T03:11:27;4.80;99.90
11087;DHT22;5597;47.588;9.642;2024-03-22T03:13:52;4.80;99.90
11087;DHT22;5597;47.588;9.642;2024-03-22T03:16:18;4.80;99.90
11087;DHT22;5597;47.588;9.642;2024-03-22T03:18:44;4.80;99.90
11087;DHT22;5597;47.588;9.642;2024-03-22T03:21:09;4.80;99.90
11087;DHT22;5597;47.588;9.642;2024-03-22T03:23:35;4.70;99.90
11087;DHT22;5597;47.588;9.642;2024-03-22T03:26:00;4.70;99.90
11087;DHT22;5597;47.588;9.642;2024-03-22T03:28:26;4.60;99.90
11087;DHT22;5597;47.588;9.642;2024-03-22T03:30:53;4.70;99.90
11087;DHT22;5597;47.588;9.642;2024-03-22T03:33:18;4.60;99.90
11087;DHT22;5597;47.588;9.642;2024-03-22T03:35:47;4.60;99.90
11087;DHT22;5597;47.588;9.642;2024-03-22T03:38:13;4.60;99.90
11087;DHT22;5597;47.588;9.642;2024-03-22T03:40:39;4.60;99.90
11087;DHT22;5597;47.588;9.642;2024-03-22T03:43:04;4.50;99.90
11087;DHT22;5597;47.588;9.642;2024-03-22T03:45:30;4.50;99.90
11087;DHT22;5597;47.588;9.642;2024-03-22T03:47:55;4.50;99.90
11087;DHT22;5597;47.588;9.642;2024-03-22T03:50:21;4.40;99.90
11087;DHT22;5597;47.588;9.642;2024-03-22T03:52:47;4.40;99.90
11087;DHT22;5597;47.588;9.642;2024-03-22T03:55:13;4.50;99.90
11087;DHT22;5597;47.588;9.642;2024-03-22T03:57:38;4.60;99.90
11087;DHT22;5597;47.588;9.642;2024-03-22T04:00:04;4.70;99.90
11087;DHT22;5597;47.588;9.642;2024-03-22T04:02:30;4.70;99.90
11087;DHT22;5597;47.588;9.642;2024-03-22T04:04:56;4.80;99.90
11087;DHT22;5597;47.588;9.642;2024-03-22T04:07:21;4.90;99.90
11087;DHT22;5597;47.588;9.642;2024-03-22T04:09:47;5.10;99.90
11087;DHT22;5597;47.588;9.642;2024-03-22T04:12:12;5.40;99.90
11087;DHT22;5597;47.588;9.642;2024-03-22T04:14:39;5.70;99.90
11087;DHT22;5597;47.588;9.642;2024-03-22T04:17:04;5.90;99.90
11087;DHT22;5597;47.588;9.642;2024-03-22T04:19:30;6.00;99.90
11087;DHT22;5597;47.588;9.642;2024-03-22T04:21:55;6.20;99.90
11087;DHT22;5597;47.588;9.642;2024-03-22T04:24:21;6.30;99.90
11087;DHT22;5597;47.588;9.642;2024-03-22T04:26:46;6.40;99.90
11087;DHT22;5597;47.588;9.642;2024-03-22T04:29:12;6.50;99.90
11087;DHT22;5597;47.588;9.642;2024-03-22T04:31:38;6.50;99.90
11087;DHT22;5597;47.588;9.642;2024-03-22T04:34:03;6.60;99.90
11087;DHT22;5597;47.588;9.642;2024-03-22T04:36:30;6.60;99.90
11087;DHT22;5597;47.588;9.642;2024-03-22T04:38:57;6.60;99.90
11087;DHT22;5597;47.588;9.642;2024-03-22T04:41:22;6.70;99.90
11087;DHT22;5597;47.588;9.642;2024-03-22T04:43:48;6.70;99.90
11087;DHT22;5597;47.588;9.642;2024-03-22T04:46:13;6.70;99.90
11087;DHT22;5597;47.588;9.642;2024-03-22T04:48:39;6.70;99.90
11087;DHT22;5597;47.588;9.642;2024-03-22T04:51:05;6.70;99.90
11087;DHT22;5597;47.588;9.642;2024-03-22T04:53:30;6.70;99.90
11087;DHT22;5597;47.588;9.642;2024-03-22T04:55:56;6.70;99.90
11087;DHT22;5597;47.588;9.642;2024-03-22T04:58:22;6.70;99.90
11087;DHT22;5597;47.588;9.642;2024-03-22T05:00:48;6.70;99.90
11087;DHT22;5597;47.588;9.642;2024-03-22T05:03:14;6.70;99.90
11087;DHT22;5597;47.588;9.642;2024-03-22T05:05:41;6.60;99.90
11087;DHT22;5597;47.588;9.642;2024-03-22T05:08:07;6.60;99.90
11087;DHT22;5597;47.588;9.642;2024-03-22T05:10:33;6.60;99.90
11087;DHT22;5597;47.588;9.642;2024-03-22T05:12:59;6.60;99.90
11087;DHT22;5597;47.588;9.642;2024-03-22T05:15:25;6.50;99.90
11087;DHT22;5597;47.588;9.642;2024-03-22T05:17:52;6.50;99.90
11087;DHT22;5597;47.588;9.642;2024-03-22T05:20:17;6.50;99.90
11087;DHT22;5597;47.588;9.642;2024-03-22T05:22:43;6.50;99.90
11087;DHT22;5597;47.588;9.642;2024-03-22T05:25:09;6.40;99.90
11087;DHT22;5597;47.588;9.642;2024-03-22T05:27:35;6.40;99.90
11087;DHT22;5597;47.588;9.642;2024-03-22T05:30:01;6.40;99.90
11087;DHT22;5597;47.588;9.642;2024-03-22T05:32:27;6.40;99.90
11087;DHT22;5597;47.588;9.642;2024-03-22T05:34:53;6.40;99.90
11087;DHT22;5597;47.588;9.642;2024-03-22T05:37:18;6.30;99.90
11087;DHT22;5597;47.588;9.642;2024-03-22T05:39:44;6.30;99.90
11087;DHT22;5597;47.588;9.642;2024-03-22T05:42:10;6.40;99.90
11087;DHT22;5597;47.588;9.642;2024-03-22T05:44:35;6.40;99.90
11087;DHT22;5597;47.588;9.642;2024-03-22T05:47:01;6.50;99.90
11087;DHT22;5597;47.588;9.642;2024-03-22T05:49:27;6.60;99.90
11087;DHT22;5597;47.588;9.642;2024-03-22T05:51:52;6.70;99.90
11087;DHT22;5597;47.588;9.642;2024-03-22T05:54:18;6.80;99.90
11087;DHT22;5597;47.588;9.642;2024-03-22T05:56:44;6.80;99.90
11087;DHT22;5597;47.588;9.642;2024-03-22T05:59:10;6.90;99.90
11087;DHT22;5597;47.588;9.642;2024-03-22T06:01:35;7.00;99.90
11087;DHT22;5597;47.588;9.642;2024-03-22T06:04:01;7.00;99.90
11087;DHT22;5597;47.588;9.642;2024-03-22T06:06:27;7.10;99.90
11087;DHT22;5597;47.588;9.642;2024-03-22T06:08:52;7.10;99.90
11087;DHT22;5597;47.588;9.642;2024-03-22T06:11:20;7.20;99.90
11087;DHT22;5597;47.588;9.642;2024-03-22T06:13:47;7.20;99.90
11087;DHT22;5597;47.588;9.642;2024-03-22T06:16:12;7.30;99.90
11087;DHT22;5597;47.588;9.642;2024-03-22T06:18:38;7.30;99.90
11087;DHT22;5597;47.588;9.642;2024-03-22T06:21:04;7.40;99.90
11087;DHT22;5597;47.588;9.642;2024-03-22T06:23:30;7.50;99.90
11087;DHT22;5597;47.588;9.642;2024-03-22T06:25:56;7.60;99.90
11087;DHT22;5597;47.588;9.642;2024-03-22T06:28:22;7.70;99.90
11087;DHT22;5597;47.588;9.642;2024-03-22T06:30:48;7.90;99.90
11087;DHT22;5597;47.588;9.642;2024-03-22T06:33:13;8.00;99.90
11087;DHT22;5597;47.588;9.642;2024-03-22T06:35:40;8.10;99.90
11087;DHT22;5597;47.588;9.642;2024-03-22T06:38:06;8.30;99.90
11087;DHT22;5597;47.588;9.642;2024-03-22T06:40:32;8.50;99.90
11087;DHT22;5597;47.588;9.642;2024-03-22T06:42:57;8.60;99.90
11087;DHT22;5597;47.588;9.642;2024-03-22T06:45:23;8.80;99.90
11087;DHT22;5597;47.588;9.642;2024-03-22T06:47:49;8.90;99.90
11087;DHT22;5597;47.588;9.642;2024-03-22T06:50:15;9.10;99.90
11087;DHT22;5597;47.588;9.642;2024-03-22T06:52:43;9.30;99.90
11087;DHT22;5597;47.588;9.642;2024-03-22T06:55:09;9.40;99.90
11087;DHT22;5597;47.588;9.642;2024-03-22T06:57:35;9.60;99.90
11087;DHT22;5597;47.588;9.642;2024-03-22T07:00:00;9.90;99.90
11087;DHT22;5597;47.588;9.642;2024-03-22T07:02:26;10.10;99.90
11087;DHT22;5597;47.588;9.642;2024-03-22T07:04:51;10.30;99.90
11087;DHT22;5597;47.588;9.642;2024-03-22T07:07:18;10.50;99.90
11087;DHT22;5597;47.588;9.642;2024-03-22T07:09:44;10.60;99.90
11087;DHT22;5597;47.588;9.642;2024-03-22T07:12:09;10.80;99.90
11087;DHT22;5597;47.588;9.642;2024-03-22T07:14:35;11.00;99.90
11087;DHT22;5597;47.588;9.642;2024-03-22T07:17:00;11.20;99.90
11087;DHT22;5597;47.588;9.642;2024-03-22T07:19:26;11.30;99.90
11087;DHT22;5597;47.588;9.642;2024-03-22T07:21:54;11.50;99.90
11087;DHT22;5597;47.588;9.642;2024-03-22T07:24:19;11.60;99.90
11087;DHT22;5597;47.588;9.642;2024-03-22T07:26:45;11.70;99.90
11087;DHT22;5597;47.588;9.642;2024-03-22T07:29:11;11.80;99.90
11087;DHT22;5597;47.588;9.642;2024-03-22T07:31:37;12.00;99.90
11087;DHT22;5597;47.588;9.642;2024-03-22T07:34:02;12.10;99.90
11087;DHT22;5597;47.588;9.642;2024-03-22T07:36:30;12.30;99.90
11087;DHT22;5597;47.588;9.642;2024-03-22T07:38:55;12.50;99.90
11087;DHT22;5597;47.588;9.642;2024-03-22T07:41:23;12.60;99.90
11087;DHT22;5597;47.588;9.642;2024-03-22T07:43:49;12.80;99.90
11087;DHT22;5597;47.588;9.642;2024-03-22T07:46:14;12.90;99.90
11087;DHT22;5597;47.588;9.642;2024-03-22T07:48:40;13.10;99.90
11087;DHT22;5597;47.588;9.642;2024-03-22T07:51:05;13.20;99.90
11087;DHT22;5597;47.588;9.642;2024-03-22T07:53:31;13.40;99.90
11087;DHT22;5597;47.588;9.642;2024-03-22T07:55:56;13.50;99.90
11087;DHT22;5597;47.588;9.642;2024-03-22T07:58:22;13.80;99.90
11087;DHT22;5597;47.588;9.642;2024-03-22T08:00:47;13.90;99.90
11087;DHT22;5597;47.588;9.642;2024-03-22T08:03:16;14.10;99.90
11087;DHT22;5597;47.588;9.642;2024-03-22T08:05:42;14.20;99.90
11087;DHT22;5597;47.588;9.642;2024-03-22T08:08:08;14.30;99.90
11087;DHT22;5597;47.588;9.642;2024-03-22T08:10:33;14.40;99.90
11087;DHT22;5597;47.588;9.642;2024-03-22T08:13:00;14.50;99.90
11087;DHT22;5597;47.588;9.642;2024-03-22T08:15:26;14.70;99.90
11087;DHT22;5597;47.588;9.642;2024-03-22T08:17:51;14.70;99.90
11087;DHT22;5597;47.588;9.642;2024-03-22T08:20:17;14.80;99.90
11087;DHT22;5597;47.588;9.642;2024-03-22T08:22:43;14.80;99.90
11087;DHT22;5597;47.588;9.642;2024-03-22T08:25:08;14.80;99.90
11087;DHT22;5597;47.588;9.642;2024-03-22T08:27:34;14.90;99.90
11087;DHT22;5597;47.588;9.642;2024-03-22T08:30:00;15.10;99.90
11087;DHT22;5597;47.588;9.642;2024-03-22T08:32:26;15.20;99.90
11087;DHT22;5597;47.588;9.642;2024-03-22T08:34:51;15.40;99.90
11087;DHT22;5597;47.588;9.642;2024-03-22T08:37:17;15.60;99.90
11087;DHT22;5597;47.588;9.642;2024-03-22T08:39:43;15.80;99.90
11087;DHT22;5597;47.588;9.642;2024-03-22T08:42:09;16.00;99.90
11087;DHT22;5597;47.588;9.642;2024-03-22T08:44:35;16.20;99.90
11087;DHT22;5597;47.588;9.642;2024-03-22T08:47:00;16.40;99.90
11087;DHT22;5597;47.588;9.642;2024-03-22T08:49:26;16.60;99.90
11087;DHT22;5597;47.588;9.642;2024-03-22T08:51:52;16.70;99.90
11087;DHT22;5597;47.588;9.642;2024-03-22T08:54:17;16.90;99.90
11087;DHT22;5597;47.588;9.642;2024-03-22T08:56:43;17.00;99.90
11087;DHT22;5597;47.588;9.642;2024-03-22T08:59:09;17.10;99.90
11087;DHT22;5597;47.588;9.642;2024-03-22T09:01:35;17.30;99.90
11087;DHT22;5597;47.588;9.642;2024-03-22T09:04:01;17.40;99.90
11087;DHT22;5597;47.588;9.642;2024-03-22T09:06:26;17.50;99.90
11087;DHT22;5597;47.588;9.642;2024-03-22T09:08:52;17.50;99.90
11087;DHT22;5597;47.588;9.642;2024-03-22T09:11:20;17.50;99.90
11087;DHT22;5597;47.588;9.642;2024-03-22T09:13:46;17.60;99.90
11087;DHT22;5597;47.588;9.642;2024-03-22T09:16:15;17.80;99.90
11087;DHT22;5597;47.588;9.642;2024-03-22T09:18:41;18.00;99.90
11087;DHT22;5597;47.588;9.642;2024-03-22T09:21:06;18.20;99.90
11087;DHT22;5597;47.588;9.642;2024-03-22T09:23:34;18.40;99.90
11087;DHT22;5597;47.588;9.642;2024-03-22T09:25:59;18.40;99.90
11087;DHT22;5597;47.588;9.642;2024-03-22T09:28:26;18.50;99.90
11087;DHT22;5597;47.588;9.642;2024-03-22T09:30:51;18.60;99.90
11087;DHT22;5597;47.588;9.642;2024-03-22T09:33:17;18.70;99.90
11087;DHT22;5597;47.588;9.642;2024-03-22T09:35:43;18.80;99.90
11087;DHT22;5597;47.588;9.642;2024-03-22T09:38:09;18.80;99.90
11087;DHT22;5597;47.588;9.642;2024-03-22T09:40:37;18.90;99.90
11087;DHT22;5597;47.588;9.642;2024-03-22T09:43:05;19.00;99.90
11087;DHT22;5597;47.588;9.642;2024-03-22T09:45:32;19.10;99.90
11087;DHT22;5597;47.588;9.642;2024-03-22T09:47:58;19.20;99.90
11087;DHT22;5597;47.588;9.642;2024-03-22T09:50:23;19.30;99.90
11087;DHT22;5597;47.588;9.642;2024-03-22T09:52:52;19.40;99.90
11087;DHT22;5597;47.588;9.642;2024-03-22T09:55:21;19.40;99.90
11087;DHT22;5597;47.588;9.642;2024-03-22T09:57:48;19.30;99.90
11087;DHT22;5597;47.588;9.642;2024-03-22T10:00:18;19.30;99.90
11087;DHT22;5597;47.588;9.642;2024-03-22T10:02:45;19.30;99.90
11087;DHT22;5597;47.588;9.642;2024-03-22T10:05:11;19.30;99.90
11087;DHT22;5597;47.588;9.642;2024-03-22T10:07:36;19.40;99.90
11087;DHT22;5597;47.588;9.642;2024-03-22T10:10:02;19.60;99.90
11087;DHT22;5597;47.588;9.642;2024-03-22T10:12:29;19.70;99.90
11087;DHT22;5597;47.588;9.642;2024-03-22T10:14:54;20.00;99.90
11087;DHT22;5597;47.588;9.642;2024-03-22T10:17:20;20.00;99.90
11087;DHT22;5597;47.588;9.642;2024-03-22T10:19:48;20.10;99.90
11087;DHT22;5597;47.588;9.642;2024-03-22T10:22:16;20.10;99.90
11087;DHT22;5597;47.588;9.642;2024-03-22T10:24:42;20.10;99.90
11087;DHT22;5597;47.588;9.642;2024-03-22T10:27:08;19.90;99.90
11087;DHT22;5597;47.588;9.642;2024-03-22T10:29:37;19.80;99.90
11087;DHT22;5597;47.588;9.642;2024-03-22T10:32:03;19.90;99.90
11087;DHT22;5597;47.588;9.642;2024-03-22T10:34:29;20.00;99.90
11087;DHT22;5597;47.588;9.642;2024-03-22T10:36:56;20.20;99.90
11087;DHT22;5597;47.588;9.642;2024-03-22T10:39:23;20.40;99.90
11087;DHT22;5597;47.588;9.642;2024-03-22T10:41:50;20.60;99.90
11087;DHT22;5597;47.588;9.642;2024-03-22T10:44:16;20.70;99.90
11087;DHT22;5597;47.588;9.642;2024-03-22T10:46:48;20.90;99.90
11087;DHT22;5597;47.588;9.642;2024-03-22T10:49:18;21.00;99.90
11087;DHT22;5597;47.588;9.642;2024-03-22T10:51:51;21.10;99.90
11087;DHT22;5597;47.588;9.642;2024-03-22T10:54:21;21.30;99.90
11087;DHT22;5597;47.588;9.642;2024-03-22T10:56:48;21.50;99.90
11087;DHT22;5597;47.588;9.642;2024-03-22T10:59:24;21.60;99.90
11087;DHT22;5597;47.588;9.642;2024-03-22T11:01:50;21.60;99.90
11087;DHT22;5597;47.588;9.642;2024-03-22T11:04:19;21.60;99.90
11087;DHT22;5597;47.588;9.642;2024-03-22T11:06:51;21.60;99.90
11087;DHT22;5597;47.588;9.642;2024-03-22T11:09:26;21.70;99.90
11087;DHT22;5597;47.588;9.642;2024-03-22T11:11:53;21.70;99.90
11087;DHT22;5597;47.588;9.642;2024-03-22T11:14:19;21.60;99.90
11087;DHT22;5597;47.588;9.642;2024-03-22T11:16:50;21.60;99.90
11087;DHT22;5597;47.588;9.642;2024-03-22T11:19:16;21.70;99.90
11087;DHT22;5597;47.588;9.642;2024-03-22T11:21:41;21.90;99.90
11087;DHT22;5597;47.588;9.642;2024-03-22T11:24:07;22.10;99.90
11087;DHT22;5597;47.588;9.642;2024-03-22T11:26:33;22.30;99.90
11087;DHT22;5597;47.588;9.642;2024-03-22T11:28:59;22.40;99.90
11087;DHT22;5597;47.588;9.642;2024-03-22T11:31:25;22.50;99.90
11087;DHT22;5597;47.588;9.642;2024-03-22T11:33:53;22.70;99.90
11087;DHT22;5597;47.588;9.642;2024-03-22T11:36:19;22.80;99.90
11087;DHT22;5597;47.588;9.642;2024-03-22T11:38:45;22.90;99.90
11087;DHT22;5597;47.588;9.642;2024-03-22T11:41:11;23.00;99.90
11087;DHT22;5597;47.588;9.642;2024-03-22T11:43:38;23.10;99.90
11087;DHT22;5597;47.588;9.642;2024-03-22T11:46:04;23.10;99.90
11087;DHT22;5597;47.588;9.642;2024-03-22T11:48:29;23.20;99.90
11087;DHT22;5597;47.588;9.642;2024-03-22T11:50:56;23.20;99.90
11087;DHT22;5597;47.588;9.642;2024-03-22T11:53:21;23.30;99.90
11087;DHT22;5597;47.588;9.642;2024-03-22T11:55:49;23.40;99.90
11087;DHT22;5597;47.588;9.642;2024-03-22T11:58:15;23.40;99.90
11087;DHT22;5597;47.588;9.642;2024-03-22T12:00:41;23.50;99.90
11087;DHT22;5597;47.588;9.642;2024-03-22T12:03:07;23.50;99.90
11087;DHT22;5597;47.588;9.642;2024-03-22T12:05:32;23.60;99.90
11087;DHT22;5597;47.588;9.642;2024-03-22T12:07:58;23.60;99.90
11087;DHT22;5597;47.588;9.642;2024-03-22T12:10:24;23.50;99.80
11087;DHT22;5597;47.588;9.642;2024-03-22T12:12:49;23.20;99.90
11087;DHT22;5597;47.588;9.642;2024-03-22T12:15:15;23.10;99.90
11087;DHT22;5597;47.588;9.642;2024-03-22T12:17:40;22.90;99.90
11087;DHT22;5597;47.588;9.642;2024-03-22T12:20:09;22.90;99.90
11087;DHT22;5597;47.588;9.642;2024-03-22T12:22:35;22.90;99.90
11087;DHT22;5597;47.588;9.642;2024-03-22T12:25:01;23.10;99.90
11087;DHT22;5597;47.588;9.642;2024-03-22T12:27:26;23.20;99.90
11087;DHT22;5597;47.588;9.642;2024-03-22T12:29:52;23.40;99.90
11087;DHT22;5597;47.588;9.642;2024-03-22T12:32:17;23.60;99.90
11087;DHT22;5597;47.588;9.642;2024-03-22T12:34:43;23.70;99.90
11087;DHT22;5597;47.588;9.642;2024-03-22T12:37:10;23.70;99.90
11087;DHT22;5597;47.588;9.642;2024-03-22T12:39:35;23.70;99.90
11087;DHT22;5597;47.588;9.642;2024-03-22T12:42:02;23.90;99.90
11087;DHT22;5597;47.588;9.642;2024-03-22T12:44:28;23.90;98.00
11087;DHT22;5597;47.588;9.642;2024-03-22T12:46:54;23.80;98.10
11087;DHT22;5597;47.588;9.642;2024-03-22T12:49:20;23.70;99.60
11087;DHT22;5597;47.588;9.642;2024-03-22T12:51:45;23.70;99.90
11087;DHT22;5597;47.588;9.642;2024-03-22T12:54:11;23.70;98.90
11087;DHT22;5597;47.588;9.642;2024-03-22T12:56:39;23.70;99.20
11087;DHT22;5597;47.588;9.642;2024-03-22T12:59:05;23.80;99.10
11087;DHT22;5597;47.588;9.642;2024-03-22T13:01:31;23.90;97.70
11087;DHT22;5597;47.588;9.642;2024-03-22T13:03:56;23.90;97.30
11087;DHT22;5597;47.588;9.642;2024-03-22T13:06:22;23.90;97.20
11087;DHT22;5597;47.588;9.642;2024-03-22T13:08:47;23.80;95.60
11087;DHT22;5597;47.588;9.642;2024-03-22T13:11:13;23.60;95.80
11087;DHT22;5597;47.588;9.642;2024-03-22T13:13:39;23.50;95.40
11087;DHT22;5597;47.588;9.642;2024-03-22T13:16:05;23.30;94.20
11087;DHT22;5597;47.588;9.642;2024-03-22T13:18:32;23.10;95.90
11087;DHT22;5597;47.588;9.642;2024-03-22T13:20:58;23.00;95.60
11087;DHT22;5597;47.588;9.642;2024-03-22T13:23:23;23.00;95.90
11087;DHT22;5597;47.588;9.642;2024-03-22T13:25:49;22.90;96.00
11087;DHT22;5597;47.588;9.642;2024-03-22T13:28:15;23.00;95.40
11087;DHT22;5597;47.588;9.642;2024-03-22T13:30:45;23.10;94.40
11087;DHT22;5597;47.588;9.642;2024-03-22T13:33:11;23.10;93.20
11087;DHT22;5597;47.588;9.642;2024-03-22T13:35:36;23.10;92.30
11087;DHT22;5597;47.588;9.642;2024-03-22T13:38:02;23.10;93.50
11087;DHT22;5597;47.588;9.642;2024-03-22T13:40:27;23.20;93.30
11087;DHT22;5597;47.588;9.642;2024-03-22T13:42:54;23.30;90.80
11087;DHT22;5597;47.588;9.642;2024-03-22T13:45:19;23.30;90.80
11087;DHT22;5597;47.588;9.642;2024-03-22T13:47:46;23.20;91.40
11087;DHT22;5597;47.588;9.642;2024-03-22T13:50:11;23.40;91.70
11087;DHT22;5597;47.588;9.642;2024-03-22T13:52:37;23.50;91.00
11087;DHT22;5597;47.588;9.642;2024-03-22T13:55:03;23.60;90.00
11087;DHT22;5597;47.588;9.642;2024-03-22T13:57:30;23.60;90.80
11087;DHT22;5597;47.588;9.642;2024-03-22T13:59:56;23.60;90.30
11087;DHT22;5597;47.588;9.642;2024-03-22T14:02:21;23.70;90.50
11087;DHT22;5597;47.588;9.642;2024-03-22T14:04:47;23.80;89.90
11087;DHT22;5597;47.588;9.642;2024-03-22T14:07:12;24.00;90.50
11087;DHT22;5597;47.588;9.642;2024-03-22T14:09:38;24.10;87.10
11087;DHT22;5597;47.588;9.642;2024-03-22T14:12:05;24.10;83.70
11087;DHT22;5597;47.588;9.642;2024-03-22T14:14:31;24.00;83.20
11087;DHT22;5597;47.588;9.642;2024-03-22T14:16:57;24.00;84.60
11087;DHT22;5597;47.588;9.642;2024-03-22T14:19:23;24.10;86.10
11087;DHT22;5597;47.588;9.642;2024-03-22T14:21:49;24.10;79.20
11087;DHT22;5597;47.588;9.642;2024-03-22T14:24:15;23.70;75.90
11087;DHT22;5597;47.588;9.642;2024-03-22T14:26:41;23.20;77.80
11087;DHT22;5597;47.588;9.642;2024-03-22T14:29:11;22.90;76.90
11087;DHT22;5597;47.588;9.642;2024-03-22T14:31:37;22.70;78.90
11087;DHT22;5597;47.588;9.642;2024-03-22T14:34:05;22.80;82.30
11087;DHT22;5597;47.588;9.642;2024-03-22T14:36:31;22.90;83.90
11087;DHT22;5597;47.588;9.642;2024-03-22T14:38:58;23.20;85.90
11087;DHT22;5597;47.588;9.642;2024-03-22T14:41:23;23.40;80.80
11087;DHT22;5597;47.588;9.642;2024-03-22T14:43:49;23.60;81.60
11087;DHT22;5597;47.588;9.642;2024-03-22T14:46:15;23.70;81.50
11087;DHT22;5597;47.588;9.642;2024-03-22T14:48:41;23.80;80.80
11087;DHT22;5597;47.588;9.642;2024-03-22T14:51:07;23.80;81.40
11087;DHT22;5597;47.588;9.642;2024-03-22T14:53:34;23.80;78.50
11087;DHT22;5597;47.588;9.642;2024-03-22T14:56:02;23.80;79.90
11087;DHT22;5597;47.588;9.642;2024-03-22T14:58:31;24.00;81.30
11087;DHT22;5597;47.588;9.642;2024-03-22T15:00:59;24.10;81.60
11087;DHT22;5597;47.588;9.642;2024-03-22T15:03:25;24.30;79.30
11087;DHT22;5597;47.588;9.642;2024-03-22T15:05:52;24.40;80.30
11087;DHT22;5597;47.588;9.642;2024-03-22T15:08:18;24.40;78.20
11087;DHT22;5597;47.588;9.642;2024-03-22T15:10:44;24.40;78.90
11087;DHT22;5597;47.588;9.642;2024-03-22T15:13:10;24.30;77.20
11087;DHT22;5597;47.588;9.642;2024-03-22T15:15:39;24.30;74.70
11087;DHT22;5597;47.588;9.642;2024-03-22T15:18:04;24.30;74.20
11087;DHT22;5597;47.588;9.642;2024-03-22T15:20:34;24.00;74.30
11087;DHT22;5597;47.588;9.642;2024-03-22T15:23:00;23.90;75.30
11087;DHT22;5597;47.588;9.642;2024-03-22T15:25:26;23.80;77.60
11087;DHT22;5597;47.588;9.642;2024-03-22T15:27:52;23.70;74.80
11087;DHT22;5597;47.588;9.642;2024-03-22T15:30:18;23.50;73.20
11087;DHT22;5597;47.588;9.642;2024-03-22T15:32:44;23.30;74.10
11087;DHT22;5597;47.588;9.642;2024-03-22T15:35:10;23.00;74.40
11087;DHT22;5597;47.588;9.642;2024-03-22T15:37:38;22.80;76.70
11087;DHT22;5597;47.588;9.642;2024-03-22T15:40:07;22.70;77.40
11087;DHT22;5597;47.588;9.642;2024-03-22T15:42:34;22.60;77.40
11087;DHT22;5597;47.588;9.642;2024-03-22T15:44:59;22.50;75.90